createdAt,value
2023-04-02T00:00:53.817Z,85.85
2023-04-02T00:01:54.740Z,85.85
2023-04-02T00:02:55.664Z,85.74
2023-04-02T00:03:56.580Z,85.64
2023-04-02T00:04:57.446Z,86.16
2023-04-02T00:05:58.336Z,86.36
2023-04-02T00:06:59.217Z,86.26
2023-04-02T00:08:00.145Z,86.16
2023-04-02T00:09:00.979Z,85.95
2023-04-02T00:10:01.865Z,85.64
2023-04-02T00:11:02.757Z,85.74
2023-04-02T00:12:03.636Z,86.05
2023-04-02T00:13:04.520Z,85.85
2023-04-02T00:14:05.429Z,85.95
2023-04-02T00:15:06.300Z,85.74
2023-04-02T00:16:07.236Z,85.53
2023-04-02T00:17:08.102Z,85.74
2023-04-02T00:18:09.014Z,85.85
2023-04-02T00:19:09.860Z,85.99
2023-04-02T00:20:10.763Z,85.95
2023-04-02T00:21:11.631Z,85.78
2023-04-02T00:22:12.516Z,85.88
2023-04-02T00:23:13.398Z,86.19
2023-04-02T00:24:14.277Z,86.30
2023-04-02T00:25:15.158Z,86.19
2023-04-02T00:26:16.054Z,86.51
2023-04-02T00:27:16.946Z,86.30
2023-04-02T00:28:17.818Z,86.19
2023-04-02T00:29:18.696Z,86.09
2023-04-02T00:30:19.602Z,85.99
2023-04-02T00:31:20.471Z,85.78
2023-04-02T00:32:21.447Z,85.88
2023-04-02T00:33:22.316Z,86.19
2023-04-02T00:34:23.198Z,86.30
2023-04-02T00:35:24.098Z,86.61
2023-04-02T00:36:24.971Z,86.61
2023-04-02T00:37:25.855Z,86.61
2023-04-02T00:38:26.746Z,86.30
2023-04-02T00:39:27.632Z,86.41
2023-04-02T00:40:28.528Z,86.41
2023-04-02T00:41:29.406Z,86.61
2023-04-02T00:42:30.282Z,86.82
2023-04-02T00:43:31.160Z,86.93
2023-04-02T00:44:32.043Z,86.82
2023-04-02T00:45:33.314Z,86.51
2023-04-02T00:46:33.844Z,87.03
2023-04-02T00:47:34.763Z,87.13
2023-04-02T00:48:35.620Z,87.45
2023-04-02T00:49:36.487Z,87.45
2023-04-02T00:50:37.386Z,87.24
2023-04-02T00:51:38.268Z,87.13
2023-04-02T00:52:39.142Z,87.34
2023-04-02T00:53:40.048Z,87.24
2023-04-02T00:54:40.916Z,87.13
2023-04-02T00:55:41.802Z,87.24
2023-04-02T00:56:42.704Z,87.55
2023-04-02T00:57:43.565Z,87.55
2023-04-02T00:58:44.453Z,87.65
2023-04-02T00:59:45.367Z,87.55
2023-04-02T01:00:46.243Z,87.34
2023-04-02T01:01:47.174Z,87.86
2023-04-02T01:02:47.763Z,87.86
2023-04-02T01:03:48.307Z,88.17
2023-04-02T01:04:49.208Z,87.86
2023-04-02T01:05:50.104Z,87.55
2023-04-02T01:06:50.976Z,86.93
2023-04-02T01:07:51.872Z,87.03
2023-04-02T01:08:52.745Z,86.93
2023-04-02T01:09:53.619Z,87.13
2023-04-02T01:10:54.511Z,87.24
2023-04-02T01:11:55.394Z,86.93
2023-04-02T01:12:56.286Z,86.93
2023-04-02T01:13:57.158Z,86.82
2023-04-02T01:14:58.039Z,87.03
2023-04-02T01:15:58.978Z,87.48
2023-04-02T01:16:59.813Z,87.69
2023-04-02T01:18:00.707Z,87.69
2023-04-02T01:19:01.575Z,87.69
2023-04-02T01:20:02.503Z,87.59
2023-04-02T01:21:03.374Z,87.69
2023-04-02T01:22:04.235Z,88.00
2023-04-02T01:23:05.125Z,88.10
2023-04-02T01:24:06.010Z,88.10
2023-04-02T01:25:06.905Z,88.31
2023-04-02T01:26:07.803Z,88.21
2023-04-02T01:27:08.684Z,88.42
2023-04-02T01:28:09.588Z,88.10
2023-04-02T01:29:10.469Z,87.90
2023-04-02T01:30:11.333Z,87.69
2023-04-02T01:31:12.258Z,87.48
2023-04-02T01:32:13.111Z,87.79
2023-04-02T01:33:13.987Z,88.10
2023-04-02T01:34:14.909Z,88.52
2023-04-02T01:35:15.748Z,88.52
2023-04-02T01:36:16.677Z,88.31
2023-04-02T01:37:17.523Z,87.90
2023-04-02T01:38:18.410Z,87.48
2023-04-02T01:39:19.284Z,87.48
2023-04-02T01:40:20.191Z,87.90
2023-04-02T01:41:21.060Z,87.90
2023-04-02T01:42:21.938Z,88.00
2023-04-02T01:43:22.821Z,88.00
2023-04-02T01:44:23.702Z,88.21
2023-04-02T01:45:24.589Z,88.62
2023-04-02T01:46:25.571Z,88.52
2023-04-02T01:47:25.966Z,88.62
2023-04-02T01:48:26.840Z,88.62
2023-04-02T01:49:27.720Z,88.62
2023-04-02T01:50:28.605Z,88.73
2023-04-02T01:51:29.498Z,88.52
2023-04-02T01:52:30.382Z,88.31
2023-04-02T01:53:31.254Z,87.90
2023-04-02T01:54:32.148Z,87.27
2023-04-02T01:55:33.507Z,87.17
2023-04-02T01:56:33.545Z,87.17
2023-04-02T01:57:34.510Z,87.17
2023-04-02T01:58:35.373Z,86.96
2023-04-02T01:59:36.249Z,86.96
2023-04-02T02:00:37.180Z,87.21
2023-04-02T02:01:38.056Z,87.11
2023-04-02T02:02:39.049Z,87.21
2023-04-02T02:03:39.435Z,87.52
2023-04-02T02:04:40.313Z,87.73
2023-04-02T02:05:41.203Z,87.52
2023-04-02T02:06:42.091Z,87.52
2023-04-02T02:07:42.973Z,87.94
2023-04-02T02:08:43.851Z,87.94
2023-04-02T02:09:44.737Z,88.15
2023-04-02T02:10:45.614Z,88.25
2023-04-02T02:11:46.508Z,88.35
2023-04-02T02:12:47.410Z,88.35
2023-04-02T02:13:48.271Z,87.94
2023-04-02T02:14:49.159Z,87.84
2023-04-02T02:15:50.036Z,87.63
2023-04-02T02:16:50.952Z,87.52
2023-04-02T02:17:51.827Z,87.52
2023-04-02T02:18:52.696Z,87.84
2023-04-02T02:19:53.575Z,87.84
2023-04-02T02:20:54.457Z,88.15
2023-04-02T02:21:55.347Z,88.15
2023-04-02T02:22:56.231Z,87.94
2023-04-02T02:23:57.111Z,87.94
2023-04-02T02:24:58.000Z,88.04
2023-04-02T02:25:58.887Z,88.35
2023-04-02T02:26:59.769Z,88.35
2023-04-02T02:28:00.657Z,88.56
2023-04-02T02:29:01.544Z,88.25
2023-04-02T02:30:02.413Z,88.15
2023-04-02T02:31:03.297Z,88.04
2023-04-02T02:32:04.255Z,87.94
2023-04-02T02:33:05.169Z,87.84
2023-04-02T02:34:06.005Z,87.63
2023-04-02T02:35:06.885Z,88.15
2023-04-02T02:36:07.800Z,88.25
2023-04-02T02:37:08.663Z,88.15
2023-04-02T02:38:09.575Z,88.46
2023-04-02T02:39:10.427Z,88.35
2023-04-02T02:40:11.302Z,88.15
2023-04-02T02:41:12.189Z,88.15
2023-04-02T02:42:13.076Z,88.35
2023-04-02T02:43:13.960Z,87.94
2023-04-02T02:44:14.838Z,87.52
2023-04-02T02:45:15.722Z,87.73
2023-04-02T02:46:16.649Z,87.73
2023-04-02T02:47:17.538Z,87.73
2023-04-02T02:48:18.400Z,87.63
2023-04-02T02:49:19.280Z,88.04
2023-04-02T02:50:20.170Z,88.04
2023-04-02T02:51:21.049Z,87.94
2023-04-02T02:52:21.941Z,87.94
2023-04-02T02:53:22.840Z,87.63
2023-04-02T02:54:23.704Z,87.52
2023-04-02T02:55:24.584Z,87.52
2023-04-02T02:56:25.460Z,87.73
2023-04-02T02:57:26.441Z,87.77
2023-04-02T02:58:27.382Z,88.09
2023-04-02T02:59:28.257Z,87.77
2023-04-02T03:00:29.139Z,87.66
2023-04-02T03:01:30.057Z,87.77
2023-04-02T03:02:31.028Z,87.66
2023-04-02T03:03:31.570Z,87.77
2023-04-02T03:04:32.077Z,87.88
2023-04-02T03:05:33.200Z,87.77
2023-04-02T03:06:33.905Z,87.88
2023-04-02T03:07:34.778Z,88.19
2023-04-02T03:08:35.659Z,87.98
2023-04-02T03:09:36.540Z,88.09
2023-04-02T03:10:37.423Z,88.12
2023-04-02T03:11:38.322Z,88.02
2023-04-02T03:12:39.201Z,88.12
2023-04-02T03:13:40.085Z,88.33
2023-04-02T03:14:40.968Z,88.33
2023-04-02T03:15:41.869Z,88.43
2023-04-02T03:16:42.724Z,88.54
2023-04-02T03:17:43.697Z,88.33
2023-04-02T03:18:44.540Z,88.43
2023-04-02T03:19:45.420Z,88.43
2023-04-02T03:20:46.300Z,88.43
2023-04-02T03:21:47.182Z,88.43
2023-04-02T03:22:48.077Z,88.43
2023-04-02T03:23:48.955Z,88.54
2023-04-02T03:24:49.855Z,88.43
2023-04-02T03:25:50.723Z,88.23
2023-04-02T03:26:51.607Z,88.06
2023-04-02T03:27:52.507Z,88.06
2023-04-02T03:28:53.394Z,88.06
2023-04-02T03:29:54.261Z,87.54
2023-04-02T03:30:55.156Z,87.54
2023-04-02T03:31:56.041Z,87.75
2023-04-02T03:32:56.994Z,87.96
2023-04-02T03:33:57.866Z,88.37
2023-04-02T03:34:58.746Z,88.58
2023-04-02T03:35:59.643Z,88.06
2023-04-02T03:37:00.509Z,87.75
2023-04-02T03:38:01.444Z,87.65
2023-04-02T03:39:02.294Z,87.75
2023-04-02T03:40:03.180Z,88.06
2023-04-02T03:41:04.060Z,88.06
2023-04-02T03:42:04.945Z,88.27
2023-04-02T03:43:05.984Z,88.52
2023-04-02T03:44:06.309Z,88.58
2023-04-02T03:45:07.193Z,88.93
2023-04-02T03:46:08.162Z,89.04
2023-04-02T03:47:08.982Z,89.14
2023-04-02T03:48:09.916Z,89.56
2023-04-02T03:49:10.775Z,89.56
2023-04-02T03:50:11.666Z,89.76
2023-04-02T03:51:12.538Z,90.08
2023-04-02T03:52:13.432Z,90.08
2023-04-02T03:53:14.316Z,89.25
2023-04-02T03:54:15.189Z,88.93
2023-04-02T03:55:16.158Z,89.04
2023-04-02T03:56:17.008Z,89.50
2023-04-02T03:57:17.901Z,90.44
2023-04-02T03:58:18.861Z,90.44
2023-04-02T03:59:19.721Z,90.75
2023-04-02T04:00:20.623Z,90.75
2023-04-02T04:01:21.483Z,90.33
2023-04-02T04:02:22.488Z,90.33
2023-04-02T04:03:22.931Z,90.58
2023-04-02T04:04:23.822Z,90.58
2023-04-02T04:05:24.669Z,90.68
2023-04-02T04:06:25.550Z,90.79
2023-04-02T04:07:26.435Z,91.20
2023-04-02T04:08:27.333Z,91.10
2023-04-02T04:09:28.208Z,91.00
2023-04-02T04:10:29.095Z,90.79
2023-04-02T04:11:30.014Z,90.89
2023-04-02T04:12:30.871Z,90.89
2023-04-02T04:13:31.770Z,90.47
2023-04-02T04:14:32.651Z,90.47
2023-04-02T04:15:33.886Z,90.06
2023-04-02T04:16:34.464Z,89.75
2023-04-02T04:17:35.373Z,89.64
2023-04-02T04:18:36.261Z,89.43
2023-04-02T04:19:37.114Z,89.22
2023-04-02T04:20:37.994Z,88.91
2023-04-02T04:21:38.883Z,89.01
2023-04-02T04:22:39.758Z,89.12
2023-04-02T04:23:40.653Z,88.91
2023-04-02T04:24:41.532Z,88.81
2023-04-02T04:25:42.417Z,88.81
2023-04-02T04:26:43.297Z,88.91
2023-04-02T04:27:44.179Z,88.85
2023-04-02T04:28:45.091Z,88.53
2023-04-02T04:29:45.975Z,88.75
2023-04-02T04:30:46.854Z,88.85
2023-04-02T04:31:47.750Z,89.06
2023-04-02T04:32:48.569Z,89.37
2023-04-02T04:33:49.496Z,89.26
2023-04-02T04:34:50.356Z,89.58
2023-04-02T04:35:51.193Z,89.78
2023-04-02T04:36:52.021Z,89.93
2023-04-02T04:37:52.897Z,89.93
2023-04-02T04:38:53.798Z,89.93
2023-04-02T04:39:54.646Z,90.25
2023-04-02T04:40:55.469Z,90.25
2023-04-02T04:41:56.311Z,90.03
2023-04-02T04:42:57.139Z,90.25
2023-04-02T04:43:58.048Z,90.25
2023-04-02T04:44:58.884Z,90.35
2023-04-02T04:45:59.740Z,90.35
2023-04-02T04:47:00.566Z,90.35
2023-04-02T04:48:01.404Z,90.25
2023-04-02T04:49:02.252Z,90.14
2023-04-02T04:50:03.059Z,89.83
2023-04-02T04:51:03.890Z,90.14
2023-04-02T04:52:04.749Z,90.25
2023-04-02T04:53:05.571Z,90.87
2023-04-02T04:54:06.424Z,91.18
2023-04-02T04:55:07.257Z,91.71
2023-04-02T04:56:18.663Z,92.12
2023-04-02T04:57:09.824Z,92.22
2023-04-02T04:58:09.647Z,91.91
2023-04-02T04:59:10.477Z,91.50
2023-04-02T05:00:11.304Z,91.18
2023-04-02T05:01:12.228Z,90.87
2023-04-02T05:02:13.014Z,90.77
2023-04-02T05:03:13.843Z,90.66
2023-04-02T05:04:14.755Z,90.56
2023-04-02T05:05:15.561Z,90.45
2023-04-02T05:06:16.383Z,90.25
2023-04-02T05:07:17.232Z,90.66
2023-04-02T05:08:18.035Z,90.87
2023-04-02T05:09:18.875Z,90.87
2023-04-02T05:10:19.709Z,91.18
2023-04-02T05:11:20.531Z,91.81
2023-04-02T05:12:21.368Z,92.22
2023-04-02T05:13:22.188Z,92.12
2023-04-02T05:14:23.027Z,92.22
2023-04-02T05:15:23.861Z,92.22
2023-04-02T05:16:24.737Z,92.12
2023-04-02T05:17:25.558Z,92.33
2023-04-02T05:18:26.358Z,92.33
2023-04-02T05:19:27.204Z,92.33
2023-04-02T05:20:28.013Z,92.12
2023-04-02T05:21:28.843Z,91.91
2023-04-02T05:22:29.679Z,91.91
2023-04-02T05:23:30.498Z,91.39
2023-04-02T05:24:31.340Z,91.29
2023-04-02T05:25:32.171Z,91.18
2023-04-02T05:26:33.005Z,91.29
2023-04-02T05:27:33.824Z,91.14
2023-04-02T05:28:34.657Z,91.04
2023-04-02T05:29:35.504Z,90.93
2023-04-02T05:30:36.330Z,90.72
2023-04-02T05:31:37.190Z,90.97
2023-04-02T05:32:38.018Z,91.39
2023-04-02T05:33:38.815Z,91.60
2023-04-02T05:34:39.680Z,91.46
2023-04-02T05:35:40.507Z,91.39
2023-04-02T05:36:41.311Z,91.35
2023-04-02T05:37:42.137Z,91.14
2023-04-02T05:38:42.969Z,91.25
2023-04-02T05:39:43.815Z,91.14
2023-04-02T05:40:44.643Z,91.04
2023-04-02T05:41:45.468Z,91.25
2023-04-02T05:42:46.293Z,91.35
2023-04-02T05:43:47.115Z,91.46
2023-04-02T05:44:47.955Z,91.56
2023-04-02T05:45:48.788Z,91.46
2023-04-02T05:46:49.728Z,91.04
2023-04-02T05:47:50.563Z,90.93
2023-04-02T05:48:51.397Z,90.93
2023-04-02T05:49:52.272Z,91.35
2023-04-02T05:50:53.073Z,91.25
2023-04-02T05:51:54.666Z,91.35
2023-04-02T05:52:54.708Z,91.35
2023-04-02T05:53:55.537Z,91.04
2023-04-02T05:54:56.362Z,91.25
2023-04-02T05:55:57.211Z,91.04
2023-04-02T05:56:58.036Z,90.93
2023-04-02T05:58:17.631Z,91.10
2023-04-02T05:59:00.610Z,90.89
2023-04-02T06:00:00.467Z,90.68
2023-04-02T06:01:01.297Z,90.79
2023-04-02T06:02:02.193Z,90.58
2023-04-02T06:03:03.053Z,90.58
2023-04-02T06:04:03.965Z,90.47
2023-04-02T06:05:04.833Z,90.37
2023-04-02T06:06:05.592Z,90.47
2023-04-02T06:07:06.425Z,90.68
2023-04-02T06:08:07.245Z,90.68
2023-04-02T06:09:08.070Z,90.68
2023-04-02T06:10:08.910Z,90.68
2023-04-02T06:11:09.747Z,90.47
2023-04-02T06:12:10.584Z,90.37
2023-04-02T06:13:11.396Z,89.85
2023-04-02T06:14:12.222Z,89.54
2023-04-02T06:15:13.068Z,89.43
2023-04-02T06:16:13.898Z,89.75
2023-04-02T06:17:14.725Z,90.06
2023-04-02T06:18:15.589Z,90.06
2023-04-02T06:19:16.418Z,90.58
2023-04-02T06:20:17.292Z,91.10
2023-04-02T06:21:18.087Z,91.41
2023-04-02T06:22:18.932Z,91.83
2023-04-02T06:23:19.743Z,91.68
2023-04-02T06:24:20.570Z,91.47
2023-04-02T06:25:21.429Z,91.68
2023-04-02T06:26:22.244Z,91.64
2023-04-02T06:27:23.067Z,91.43
2023-04-02T06:28:23.898Z,91.39
2023-04-02T06:29:24.725Z,91.18
2023-04-02T06:30:25.563Z,90.93
2023-04-02T06:31:26.446Z,90.47
2023-04-02T06:32:27.295Z,90.02
2023-04-02T06:33:28.110Z,89.25
2023-04-02T06:34:28.900Z,88.79
2023-04-02T06:35:29.759Z,87.65
2023-04-02T06:36:30.566Z,86.16
2023-04-02T06:37:31.391Z,85.08
2023-04-02T06:38:32.219Z,84.46
2023-04-02T06:39:33.032Z,84.46
2023-04-02T06:40:33.871Z,84.88
2023-04-02T06:41:34.701Z,84.94
2023-04-02T06:42:35.520Z,84.73
2023-04-02T06:43:36.507Z,83.86
2023-04-02T06:44:36.851Z,83.20
2023-04-02T06:45:37.828Z,82.54
2023-04-02T06:46:38.653Z,82.46
2023-04-02T06:47:39.509Z,82.36
2023-04-02T06:48:40.312Z,79.84
2023-04-02T06:49:41.139Z,80.11
2023-04-02T06:50:41.987Z,78.74
2023-04-02T06:51:42.795Z,78.70
2023-04-02T06:52:43.626Z,77.77
2023-04-02T06:53:44.452Z,76.60
2023-04-02T06:54:45.347Z,76.56
2023-04-02T06:55:46.180Z,75.74
2023-04-02T06:56:47.083Z,75.49
2023-04-02T06:57:47.899Z,75.05
2023-04-02T06:58:48.713Z,74.33
2023-04-02T06:59:49.549Z,73.98
2023-04-02T07:00:50.387Z,73.98
2023-04-02T07:01:51.264Z,73.64
2023-04-02T07:02:52.138Z,72.99
2023-04-02T07:03:52.963Z,72.96
2023-04-02T07:04:53.810Z,71.79
2023-04-02T07:05:54.681Z,70.35
2023-04-02T07:06:55.500Z,70.32
2023-04-02T07:07:56.310Z,70.59
2023-04-02T07:08:57.132Z,69.43
2023-04-02T07:09:57.993Z,68.78
2023-04-02T07:10:58.836Z,68.96
2023-04-02T07:11:59.644Z,69.54
2023-04-02T07:13:00.494Z,67.46
2023-04-02T07:14:01.310Z,67.02
2023-04-02T07:15:02.137Z,67.08
2023-04-02T07:16:02.996Z,65.49
2023-04-02T07:17:03.885Z,63.92
2023-04-02T07:18:04.791Z,63.72
2023-04-02T07:19:05.273Z,63.25
2023-04-02T07:20:06.096Z,62.81
2023-04-02T07:21:06.947Z,62.30
2023-04-02T07:22:07.753Z,60.23
2023-04-02T07:23:08.581Z,60.53
2023-04-02T07:24:09.405Z,59.92
2023-04-02T07:25:10.256Z,60.03
2023-04-02T07:26:11.079Z,60.13
2023-04-02T07:27:11.939Z,59.72
2023-04-02T07:28:12.780Z,59.82
2023-04-02T07:29:13.597Z,59.62
2023-04-02T07:30:14.421Z,59.52
2023-04-02T07:31:15.286Z,59.52
2023-04-02T07:32:16.108Z,59.39
2023-04-02T07:33:16.918Z,58.16
2023-04-02T07:34:17.762Z,59.28
2023-04-02T07:35:18.585Z,59.89
2023-04-02T07:36:19.498Z,59.26
2023-04-02T07:37:20.306Z,59.23
2023-04-02T07:38:21.152Z,58.51
2023-04-02T07:39:21.960Z,58.11
2023-04-02T07:40:22.798Z,58.69
2023-04-02T07:41:23.633Z,58.56
2023-04-02T07:42:24.463Z,57.92
2023-04-02T07:43:25.412Z,58.20
2023-04-02T07:44:26.169Z,56.88
2023-04-02T07:45:27.146Z,55.12
2023-04-02T07:46:27.926Z,55.83
2023-04-02T07:47:28.764Z,55.81
2023-04-02T07:48:29.589Z,55.10
2023-04-02T07:49:30.393Z,56.09
2023-04-02T07:50:31.225Z,54.46
2023-04-02T07:51:32.073Z,53.42
2023-04-02T07:52:32.880Z,54.54
2023-04-02T07:53:33.733Z,55.05
2023-04-02T07:54:34.534Z,53.70
2023-04-02T07:55:35.625Z,53.52
2023-04-02T07:56:36.056Z,53.09
2023-04-02T07:57:36.873Z,53.60
2023-04-02T07:58:37.711Z,52.58
2023-04-02T07:59:38.528Z,52.28
2023-04-02T08:00:39.368Z,53.67
2023-04-02T08:01:40.220Z,53.58
2023-04-02T08:02:41.040Z,52.46
2023-04-02T08:03:41.903Z,52.94
2023-04-02T08:04:42.729Z,51.80
2023-04-02T08:05:43.569Z,51.39
2023-04-02T08:06:44.418Z,51.72
2023-04-02T08:07:45.224Z,52.71
2023-04-02T08:08:46.049Z,52.20
2023-04-02T08:09:46.873Z,51.37
2023-04-02T08:10:47.711Z,50.05
2023-04-02T08:11:48.550Z,50.26
2023-04-02T08:12:49.368Z,49.65
2023-04-02T08:13:50.206Z,49.85
2023-04-02T08:14:51.028Z,50.03
2023-04-02T08:15:51.876Z,49.60
2023-04-02T08:16:52.875Z,48.79
2023-04-02T08:17:53.287Z,48.18
2023-04-02T08:18:54.078Z,47.78
2023-04-02T08:19:55.439Z,47.90
2023-04-02T08:20:55.808Z,47.44
2023-04-02T08:21:56.665Z,48.18
2023-04-02T08:22:57.464Z,48.38
2023-04-02T08:23:58.293Z,48.91
2023-04-02T08:24:59.118Z,48.65
2023-04-02T08:25:59.975Z,49.18
2023-04-02T08:27:00.793Z,50.52
2023-04-02T08:28:01.619Z,51.03
2023-04-02T08:29:02.446Z,50.45
2023-04-02T08:30:03.260Z,49.96
2023-04-02T08:31:04.132Z,51.23
2023-04-02T08:32:04.926Z,52.07
2023-04-02T08:33:05.803Z,53.09
2023-04-02T08:34:06.579Z,53.42
2023-04-02T08:35:07.432Z,54.36
2023-04-02T08:36:08.296Z,54.36
2023-04-02T08:37:09.114Z,53.47
2023-04-02T08:38:09.917Z,54.00
2023-04-02T08:39:10.745Z,54.64
2023-04-02T08:40:11.572Z,54.46
2023-04-02T08:41:12.411Z,55.10
2023-04-02T08:42:13.313Z,55.33
2023-04-02T08:43:14.114Z,56.46
2023-04-02T08:44:14.937Z,57.68
2023-04-02T08:45:24.992Z,58.02
2023-04-02T08:46:17.538Z,58.84
2023-04-02T08:47:17.401Z,58.12
2023-04-02T08:48:18.221Z,59.14
2023-04-02T08:49:19.047Z,58.84
2023-04-02T08:50:19.882Z,57.43
2023-04-02T08:51:20.718Z,57.94
2023-04-02T08:52:21.556Z,58.56
2023-04-02T08:53:22.373Z,59.27
2023-04-02T08:54:23.196Z,58.25
2023-04-02T08:55:24.020Z,57.43
2023-04-02T08:56:24.853Z,57.12
2023-04-02T08:57:25.699Z,57.84
2023-04-02T08:58:26.510Z,58.76
2023-04-02T08:59:27.328Z,58.76
2023-04-02T09:00:28.156Z,58.76
2023-04-02T09:01:29.077Z,58.45
2023-04-02T09:02:30.027Z,58.66
2023-04-02T09:03:30.815Z,58.25
2023-04-02T09:04:31.680Z,58.86
2023-04-02T09:05:32.540Z,57.84
2023-04-02T09:06:33.312Z,58.15
2023-04-02T09:07:34.192Z,57.84
2023-04-02T09:08:35.005Z,57.84
2023-04-02T09:09:35.819Z,57.74
2023-04-02T09:10:36.644Z,57.25
2023-04-02T09:11:37.480Z,56.84
2023-04-02T09:12:39.609Z,57.46
2023-04-02T09:13:38.842Z,57.46
2023-04-02T09:14:39.683Z,58.72
2023-04-02T09:15:40.512Z,58.20
2023-04-02T09:16:41.347Z,58.00
2023-04-02T09:17:52.941Z,58.10
2023-04-02T09:18:43.936Z,58.64
2023-04-02T09:19:43.728Z,58.95
2023-04-02T09:20:44.569Z,59.25
2023-04-02T09:21:45.398Z,59.15
2023-04-02T09:22:46.245Z,59.56
2023-04-02T09:23:47.052Z,58.54
2023-04-02T09:24:47.880Z,58.95
2023-04-02T09:26:03.020Z,58.95
2023-04-02T09:26:50.435Z,59.15
2023-04-02T09:27:50.317Z,60.00
2023-04-02T09:28:51.128Z,60.61
2023-04-02T09:29:51.969Z,61.44
2023-04-02T09:30:52.799Z,61.54
2023-04-02T09:31:53.847Z,61.02
2023-04-02T09:32:54.152Z,60.92
2023-04-02T09:33:54.976Z,61.64
2023-04-02T09:34:55.802Z,61.85
2023-04-02T09:35:56.674Z,61.23
2023-04-02T09:36:57.501Z,60.92
2023-04-02T09:37:58.338Z,61.26
2023-04-02T09:38:59.181Z,61.67
2023-04-02T09:39:59.973Z,61.16
2023-04-02T09:41:00.804Z,61.36
2023-04-02T09:42:05.804Z,61.77
2023-04-02T09:43:02.346Z,62.08
2023-04-02T09:44:03.183Z,62.29
2023-04-02T09:45:04.064Z,62.49
2023-04-02T09:46:04.893Z,63.10
2023-04-02T09:47:05.802Z,63.62
2023-04-02T09:48:06.654Z,63.00
2023-04-02T09:49:07.451Z,61.98
2023-04-02T09:50:08.281Z,61.87
2023-04-02T09:51:09.106Z,62.18
2023-04-02T09:52:09.945Z,61.87
2023-04-02T09:53:10.800Z,61.16
2023-04-02T09:54:11.602Z,61.67
2023-04-02T09:55:12.429Z,61.57
2023-04-02T09:56:13.274Z,62.39
2023-04-02T09:57:14.144Z,62.46
2023-04-02T09:58:14.937Z,62.66
2023-04-02T09:59:15.773Z,62.77
2023-04-02T10:00:29.808Z,61.85
2023-04-02T10:01:18.356Z,61.95
2023-04-02T10:02:18.166Z,62.15
2023-04-02T10:03:18.999Z,61.95
2023-04-02T10:04:19.834Z,61.33
2023-04-02T10:05:36.871Z,62.05
2023-04-02T10:06:22.367Z,61.51
2023-04-02T10:07:22.201Z,61.20
2023-04-02T10:08:23.058Z,61.41
2023-04-02T10:09:23.857Z,61.41
2023-04-02T10:10:26.308Z,62.02
2023-04-02T10:11:28.917Z,61.20
2023-04-02T10:12:27.384Z,61.20
2023-04-02T10:13:27.228Z,62.12
2023-04-02T10:14:28.036Z,62.12
2023-04-02T10:15:28.869Z,61.92
2023-04-02T10:16:29.780Z,62.02
2023-04-02T10:17:30.633Z,62.23
2023-04-02T10:18:31.413Z,61.92
2023-04-02T10:19:32.251Z,62.54
2023-04-02T10:20:39.065Z,62.56
2023-04-02T10:21:34.805Z,62.05
2023-04-02T10:22:34.634Z,62.77
2023-04-02T10:23:35.475Z,62.77
2023-04-02T10:24:36.280Z,61.95
2023-04-02T10:25:37.309Z,62.05
2023-04-02T10:26:37.733Z,61.33
2023-04-02T10:27:38.554Z,61.33
2023-04-02T10:28:39.385Z,61.57
2023-04-02T10:29:40.218Z,61.77
2023-04-02T10:30:41.076Z,62.18
2023-04-02T10:31:41.901Z,62.29
2023-04-02T10:32:42.797Z,63.24
2023-04-02T10:33:43.608Z,62.83
2023-04-02T10:34:44.449Z,62.73
2023-04-02T10:35:45.304Z,63.44
2023-04-02T10:36:46.114Z,63.03
2023-04-02T10:37:47.017Z,63.03
2023-04-02T10:38:47.903Z,63.24
2023-04-02T10:39:48.704Z,62.73
2023-04-02T10:40:49.537Z,62.73
2023-04-02T10:41:50.370Z,63.13
2023-04-02T10:42:51.203Z,63.34
2023-04-02T10:43:52.030Z,62.93
2023-04-02T10:44:52.868Z,62.31
2023-04-02T10:45:53.690Z,62.21
2023-04-02T10:46:54.506Z,62.52
2023-04-02T10:47:55.414Z,62.31
2023-04-02T10:48:56.200Z,61.83
2023-04-02T10:49:57.035Z,61.52
2023-04-02T10:50:57.859Z,62.04
2023-04-02T10:51:58.681Z,61.72
2023-04-02T10:52:59.520Z,61.83
2023-04-02T10:54:00.367Z,62.24
2023-04-02T10:55:01.168Z,62.45
2023-04-02T10:56:01.984Z,62.45
2023-04-02T10:57:02.865Z,62.24
2023-04-02T10:58:03.660Z,62.75
2023-04-02T10:59:04.482Z,62.85
2023-04-02T11:00:05.313Z,62.14
2023-04-02T11:01:06.134Z,62.14
2023-04-02T11:02:06.966Z,61.21
2023-04-02T11:03:07.874Z,61.32
2023-04-02T11:04:08.698Z,62.01
2023-04-02T11:05:09.513Z,61.70
2023-04-02T11:06:11.955Z,60.98
2023-04-02T11:07:14.772Z,61.18
2023-04-02T11:08:12.231Z,61.08
2023-04-02T11:09:13.089Z,61.42
2023-04-02T11:10:13.886Z,61.52
2023-04-02T11:11:14.714Z,62.14
2023-04-02T11:12:15.536Z,62.04
2023-04-02T11:13:16.385Z,62.24
2023-04-02T11:14:17.218Z,61.72
2023-04-02T11:15:18.079Z,61.42
2023-04-02T11:16:18.913Z,62.14
2023-04-02T11:17:19.811Z,62.34
2023-04-02T11:18:20.658Z,62.55
2023-04-02T11:19:21.493Z,62.93
2023-04-02T11:20:22.317Z,62.93
2023-04-02T11:21:23.154Z,63.13
2023-04-02T11:22:23.983Z,62.62
2023-04-02T11:23:24.824Z,62.21
2023-04-02T11:24:25.673Z,62.11
2023-04-02T11:25:26.480Z,62.52
2023-04-02T11:26:27.304Z,62.62
2023-04-02T11:27:28.144Z,62.62
2023-04-02T11:28:28.991Z,62.73
2023-04-02T11:29:29.815Z,62.41
2023-04-02T11:30:30.634Z,62.11
2023-04-02T11:31:31.532Z,62.11
2023-04-02T11:32:32.386Z,61.87
2023-04-02T11:33:38.303Z,61.77
2023-04-02T11:34:34.925Z,62.08
2023-04-02T11:35:35.066Z,62.39
2023-04-02T11:36:35.502Z,63.00
2023-04-02T11:37:36.336Z,62.80
2023-04-02T11:38:37.180Z,63.21
2023-04-02T11:39:38.036Z,63.31
2023-04-02T11:40:38.837Z,63.62
2023-04-02T11:41:39.663Z,64.13
2023-04-02T11:42:40.521Z,64.20
2023-04-02T11:43:41.340Z,64.20
2023-04-02T11:44:42.276Z,64.92
2023-04-02T11:45:51.937Z,64.51
2023-04-02T11:46:44.843Z,64.10
2023-04-02T11:47:44.689Z,64.31
2023-04-02T11:48:45.512Z,64.20
2023-04-02T11:49:46.451Z,64.31
2023-04-02T11:50:47.297Z,64.61
2023-04-02T11:51:48.739Z,64.72
2023-04-02T11:52:48.923Z,64.82
2023-04-02T11:53:49.778Z,64.69
2023-04-02T11:54:50.618Z,64.38
2023-04-02T11:55:51.422Z,64.28
2023-04-02T11:56:52.310Z,64.89
2023-04-02T11:57:53.115Z,63.56
2023-04-02T11:58:53.948Z,63.56
2023-04-02T11:59:54.766Z,64.65
2023-04-02T12:00:55.595Z,65.27
2023-04-02T12:01:56.446Z,65.27
2023-04-02T12:02:57.261Z,65.17
2023-04-02T12:03:58.100Z,65.27
2023-04-02T12:04:58.979Z,65.07
2023-04-02T12:06:01.231Z,64.56
2023-04-02T12:07:00.602Z,64.56
2023-04-02T12:08:01.430Z,64.86
2023-04-02T12:09:02.286Z,64.86
2023-04-02T12:10:03.129Z,65.27
2023-04-02T12:11:03.941Z,65.45
2023-04-02T12:12:04.769Z,64.62
2023-04-02T12:13:05.610Z,63.60
2023-04-02T12:14:06.437Z,63.50
2023-04-02T12:15:07.268Z,63.60
2023-04-02T12:16:08.085Z,63.20
2023-04-02T12:17:10.003Z,63.50
2023-04-02T12:18:09.906Z,63.70
2023-04-02T12:19:10.760Z,64.73
2023-04-02T12:20:11.597Z,65.21
2023-04-02T12:21:12.414Z,65.01
2023-04-02T12:22:13.244Z,64.90
2023-04-02T12:23:14.072Z,65.11
2023-04-02T12:24:14.928Z,65.62
2023-04-02T12:25:15.763Z,65.62
2023-04-02T12:26:16.571Z,65.83
2023-04-02T12:27:17.419Z,65.62
2023-04-02T12:28:18.229Z,65.52
2023-04-02T12:29:19.067Z,65.42
2023-04-02T12:30:19.912Z,65.31
2023-04-02T12:31:20.789Z,64.90
2023-04-02T12:32:21.572Z,65.42
2023-04-02T12:33:22.399Z,66.24
2023-04-02T12:34:23.247Z,66.44
2023-04-02T12:35:24.071Z,66.03
2023-04-02T12:36:24.897Z,65.83
2023-04-02T12:37:25.721Z,66.03
2023-04-02T12:38:26.667Z,66.03
2023-04-02T12:39:28.536Z,65.72
2023-04-02T12:40:28.030Z,65.72
2023-04-02T12:41:28.848Z,65.93
2023-04-02T12:42:29.658Z,66.03
2023-04-02T12:43:30.490Z,65.52
2023-04-02T12:44:31.333Z,64.09
2023-04-02T12:45:32.158Z,63.50
2023-04-02T12:46:33.073Z,62.78
2023-04-02T12:47:33.930Z,62.58
2023-04-02T12:48:34.737Z,62.71
2023-04-02T12:49:35.556Z,63.22
2023-04-02T12:50:36.509Z,63.15
2023-04-02T12:51:36.943Z,63.76
2023-04-02T12:52:37.767Z,64.20
2023-04-02T12:53:38.599Z,64.41
2023-04-02T12:54:39.433Z,64.61
2023-04-02T12:55:40.283Z,64.54
2023-04-02T12:56:41.099Z,65.26
2023-04-02T12:57:42.004Z,65.57
2023-04-02T12:58:42.884Z,65.57
2023-04-02T12:59:43.684Z,65.88
2023-04-02T13:00:44.530Z,66.22
2023-04-02T13:01:45.346Z,66.73
2023-04-02T13:02:46.187Z,66.63
2023-04-02T13:03:47.028Z,66.63